• Join FlightAware (Why Join?)
  • Login
  • US Flag 
04:21PM EDT


 

Airport Tracker/Info


-or-


 

Live Flight TrackerFlight Track Log ✈ SSX933 ✈ 19-Mar-2011 ✈ KDEN - KASE

Flight Track Log - Related Links

Times and Time Zones

All times are in EDT time to prevent confusion due to time zone crossing. See the SSX933 flight status page for this flight to view local times or setup timezone preferences in your user account.

Time Position Orientation Groundspeed Altitude Reporting Facility
EDT Latitude Longitude Course Direction KTS MPH feet Rate Location/Type
03:11PM 39.8065 -104.6522 285° West  Level FlightAware Approximate
03:11PM 39.8333 -104.7833 252° West 204 235 6,900  Level Denver TRACON
03:12PM 39.8167 -104.8500 255° West 224 258 9,000 2,100 Climbing Denver TRACON
03:13PM 39.8000 -104.9333 230° Southwest 214 246 11,300 2,220 Climbing Denver TRACON
03:15PM 39.7492 -105.0122 240° Southwest 210 242 14,000 1,920 Climbing Denver Center
03:16PM 39.7186 -105.0803 269° West 223 257 15,600 1,500 Climbing Denver Center
03:17PM 39.7175 -105.1586 268° West 218 251 17,000 660 Climbing Denver Center
03:18PM 39.7144 -105.2558 268° West 273 314 17,000  Level Denver Center
03:19PM 39.7114 -105.3558 267° West 282 325 17,000  Level Denver Center
03:21PM 39.7025 -105.5422 267° West 272 313 17,000 240 Level Denver Center
03:22PM 39.6989 -105.6286 261° West 256 295 17,800 1,680 Climbing Denver Center
03:23PM 39.6892 -105.7042 256° West 235 270 20,400 1,860 Climbing Denver Center
03:24PM 39.6750 -105.7772 254° West 216 249 21,600 960 Climbing Denver Center
03:25PM 39.6586 -105.8503 253° West 211 243 22,400 660 Climbing Denver Center
03:26PM 39.6444 -105.9122 256° West 206 237 23,000 420 Climbing Denver Center
03:27PM 39.6281 -105.9961 255° West 228 262 23,300 480 Climbing Denver Center
03:28PM 39.6097 -106.0850 258° West 247 284 24,000 300 Climbing Denver Center
03:29PM 39.5933 -106.1822 255° West 247 284 24,000  Level Denver Center
03:30PM 39.5747 -106.2711 256° West 252 290 24,000 -780 Level Denver Center
03:31PM 39.5581 -106.3547 254° West 257 296 22,500 -1,800 Descending Denver Center
03:32PM 39.5394 -106.4383 248° West 257 296 20,500 -1,500 Descending Denver Center
03:33PM 39.5144 -106.5189 256° West 244 281 19,500 -1,200 Descending Denver Center
03:33PM 39.5061 -106.5619 256° West 218 251 18,500 -1,680 Descending Denver Center
03:34PM 39.4997 -106.5942 251° West 233 268 17,900 -1,560 Descending Denver Center
03:35PM 39.4808 -106.6669 255° West 233 268 16,500 -1,380 Descending Denver Center
03:36PM 39.4639 -106.7503 288° West 240 276 15,200 -960 Descending Denver Center
03:37PM 39.4867 -106.8419 288° West 235 270 14,600 -480 Descending Denver Center
03:37PM 39.5011 -106.8983 270° West 245 282 14,400 -420 Descending Denver Center
03:38PM 39.5011 -106.9172 215° Southwest 235 270 14,200 -540 Descending Denver Center
03:39PM 39.4656 -106.9492 182° South 203 234 13,700 -660 Descending Denver Center
03:40PM 39.4133 -106.9517 166° South 141 162 12,900 -720 Descending Denver Center
03:41PM 39.3717 -106.9378 165° South 153 176 12,300 -1,080 Descending Denver Center
03:41PM 39.3403 -106.9269 165° South 141 162 11,100 -1,740 Descending Denver Center
03:42PM 39.3322 -106.9242 158° South 158 182 10,600 -1,440 Descending Denver Center
03:43PM 39.2967 -106.9053 158° South 153 176 9,300 -1,320 Descending Denver Center